sensor_id;sensor_type;location;lat;lon;timestamp;temperature;humidity
55795;DHT22;41716;51.910;4.430;2023-02-22T00:04:56;6.70;99.90
55795;DHT22;41716;51.910;4.430;2023-02-22T00:09:58;7.20;99.90
55795;DHT22;41716;51.910;4.430;2023-02-22T00:15:00;6.70;99.90
55795;DHT22;41716;51.910;4.430;2023-02-22T00:20:02;7.50;99.90
55795;DHT22;41716;51.910;4.430;2023-02-22T00:25:07;7.40;99.90
55795;DHT22;41716;51.910;4.430;2023-02-22T00:30:09;6.50;99.90
55795;DHT22;41716;51.910;4.430;2023-02-22T00:35:14;6.60;99.90
55795;DHT22;41716;51.910;4.430;2023-02-22T00:40:18;7.30;99.90
55795;DHT22;41716;51.910;4.430;2023-02-22T00:45:21;6.70;99.90
55795;DHT22;41716;51.910;4.430;2023-02-22T00:50:24;6.60;99.90
55795;DHT22;41716;51.910;4.430;2023-02-22T00:55:28;6.60;99.90
55795;DHT22;41716;51.910;4.430;2023-02-22T01:00:31;7.00;99.90
55795;DHT22;41716;51.910;4.430;2023-02-22T01:05:33;6.50;99.90
55795;DHT22;41716;51.910;4.430;2023-02-22T01:10:36;6.70;99.90
55795;DHT22;41716;51.910;4.430;2023-02-22T01:15:40;6.40;99.90
55795;DHT22;41716;51.910;4.430;2023-02-22T01:20:42;6.90;99.90
55795;DHT22;41716;51.910;4.430;2023-02-22T01:25:48;7.00;99.90
55795;DHT22;41716;51.910;4.430;2023-02-22T01:30:49;6.50;99.90
55795;DHT22;41716;51.910;4.430;2023-02-22T01:35:51;6.60;99.90
55795;DHT22;41716;51.910;4.430;2023-02-22T01:40:54;6.30;99.90
55795;DHT22;41716;51.910;4.430;2023-02-22T01:45:57;6.10;99.90
55795;DHT22;41716;51.910;4.430;2023-02-22T01:51:00;6.10;99.90
55795;DHT22;41716;51.910;4.430;2023-02-22T01:56:04;6.00;99.90
55795;DHT22;41716;51.910;4.430;2023-02-22T02:01:06;6.10;99.90
55795;DHT22;41716;51.910;4.430;2023-02-22T02:06:09;6.00;99.90
55795;DHT22;41716;51.910;4.430;2023-02-22T02:11:14;6.80;99.90
55795;DHT22;41716;51.910;4.430;2023-02-22T02:16:16;6.30;99.90
55795;DHT22;41716;51.910;4.430;2023-02-22T02:26:46;5.70;99.90
55795;DHT22;41716;51.910;4.430;2023-02-22T02:37:26;6.20;99.90
55795;DHT22;41716;51.910;4.430;2023-02-22T02:42:33;6.60;99.90
55795;DHT22;41716;51.910;4.430;2023-02-22T02:47:36;6.70;99.90
55795;DHT22;41716;51.910;4.430;2023-02-22T02:52:41;6.40;99.90
55795;DHT22;41716;51.910;4.430;2023-02-22T02:57:43;6.60;99.90
55795;DHT22;41716;51.910;4.430;2023-02-22T03:02:46;5.70;99.90
55795;DHT22;41716;51.910;4.430;2023-02-22T03:07:53;5.50;99.90
55795;DHT22;41716;51.910;4.430;2023-02-22T03:12:59;6.50;99.90
55795;DHT22;41716;51.910;4.430;2023-02-22T03:18:02;5.50;99.90
55795;DHT22;41716;51.910;4.430;2023-02-22T03:23:11;6.60;99.90
55795;DHT22;41716;51.910;4.430;2023-02-22T03:28:15;6.60;99.90
55795;DHT22;41716;51.910;4.430;2023-02-22T03:33:18;5.70;99.90
55795;DHT22;41716;51.910;4.430;2023-02-22T03:38:25;5.80;99.90
55795;DHT22;41716;51.910;4.430;2023-02-22T03:43:29;6.70;99.90
55795;DHT22;41716;51.910;4.430;2023-02-22T03:48:34;6.10;99.90
55795;DHT22;41716;51.910;4.430;2023-02-22T03:53:38;5.80;99.90
55795;DHT22;41716;51.910;4.430;2023-02-22T03:58:40;5.60;99.90
55795;DHT22;41716;51.910;4.430;2023-02-22T04:03:43;5.30;99.90
55795;DHT22;41716;51.910;4.430;2023-02-22T04:08:46;5.80;99.90
55795;DHT22;41716;51.910;4.430;2023-02-22T04:13:47;5.90;99.90
55795;DHT22;41716;51.910;4.430;2023-02-22T04:18:49;6.70;99.90
55795;DHT22;41716;51.910;4.430;2023-02-22T04:23:52;6.60;99.90
55795;DHT22;41716;51.910;4.430;2023-02-22T04:28:53;6.00;99.90
55795;DHT22;41716;51.910;4.430;2023-02-22T04:33:55;6.40;99.90
55795;DHT22;41716;51.910;4.430;2023-02-22T04:38:58;5.50;99.90
55795;DHT22;41716;51.910;4.430;2023-02-22T04:43:59;6.70;99.90
55795;DHT22;41716;51.910;4.430;2023-02-22T04:49:01;6.50;99.90
55795;DHT22;41716;51.910;4.430;2023-02-22T04:54:04;6.60;99.90
55795;DHT22;41716;51.910;4.430;2023-02-22T04:59:05;6.70;99.90
55795;DHT22;41716;51.910;4.430;2023-02-22T05:04:07;5.90;99.90
55795;DHT22;41716;51.910;4.430;2023-02-22T05:09:10;5.40;99.90
55795;DHT22;41716;51.910;4.430;2023-02-22T05:14:11;5.90;99.90
55795;DHT22;41716;51.910;4.430;2023-02-22T05:19:13;5.90;99.90
55795;DHT22;41716;51.910;4.430;2023-02-22T05:24:16;6.10;99.90
55795;DHT22;41716;51.910;4.430;2023-02-22T05:29:17;5.90;99.90
55795;DHT22;41716;51.910;4.430;2023-02-22T05:34:22;6.20;99.90
55795;DHT22;41716;51.910;4.430;2023-02-22T05:39:25;5.30;99.90
55795;DHT22;41716;51.910;4.430;2023-02-22T05:44:26;6.50;99.90
55795;DHT22;41716;51.910;4.430;2023-02-22T05:49:28;6.70;99.90
55795;DHT22;41716;51.910;4.430;2023-02-22T05:54:31;6.80;99.90
55795;DHT22;41716;51.910;4.430;2023-02-22T05:59:32;5.80;99.90
55795;DHT22;41716;51.910;4.430;2023-02-22T06:04:34;6.80;99.90
55795;DHT22;41716;51.910;4.430;2023-02-22T06:09:37;6.40;99.90
55795;DHT22;41716;51.910;4.430;2023-02-22T06:14:38;5.80;99.90
55795;DHT22;41716;51.910;4.430;2023-02-22T06:19:45;5.30;99.90
55795;DHT22;41716;51.910;4.430;2023-02-22T06:24:47;6.60;99.90
55795;DHT22;41716;51.910;4.430;2023-02-22T06:29:49;6.10;99.90
55795;DHT22;41716;51.910;4.430;2023-02-22T06:34:51;5.20;99.90
55795;DHT22;41716;51.910;4.430;2023-02-22T06:39:54;6.70;99.90
55795;DHT22;41716;51.910;4.430;2023-02-22T06:44:55;5.40;99.90
55795;DHT22;41716;51.910;4.430;2023-02-22T06:49:57;6.00;99.90
55795;DHT22;41716;51.910;4.430;2023-02-22T06:55:01;5.40;99.90
55795;DHT22;41716;51.910;4.430;2023-02-22T07:00:03;6.70;99.90
55795;DHT22;41716;51.910;4.430;2023-02-22T07:05:04;5.60;99.90
55795;DHT22;41716;51.910;4.430;2023-02-22T07:10:13;5.30;99.90
55795;DHT22;41716;51.910;4.430;2023-02-22T07:15:16;6.10;99.90
55795;DHT22;41716;51.910;4.430;2023-02-22T07:20:19;6.80;99.90
55795;DHT22;41716;51.910;4.430;2023-02-22T07:25:22;6.70;99.90
55795;DHT22;41716;51.910;4.430;2023-02-22T07:30:25;5.90;99.90
55795;DHT22;41716;51.910;4.430;2023-02-22T07:35:30;5.50;99.90
55795;DHT22;41716;51.910;4.430;2023-02-22T07:40:34;6.60;99.90
55795;DHT22;41716;51.910;4.430;2023-02-22T07:45:35;6.70;99.90
55795;DHT22;41716;51.910;4.430;2023-02-22T07:50:37;6.50;99.90
55795;DHT22;41716;51.910;4.430;2023-02-22T07:55:40;6.70;99.90
55795;DHT22;41716;51.910;4.430;2023-02-22T08:00:42;6.90;99.90
55795;DHT22;41716;51.910;4.430;2023-02-22T08:05:45;6.00;99.90
55795;DHT22;41716;51.910;4.430;2023-02-22T08:10:48;6.50;99.90
55795;DHT22;41716;51.910;4.430;2023-02-22T08:15:51;5.80;99.90
55795;DHT22;41716;51.910;4.430;2023-02-22T08:20:53;7.00;99.90
55795;DHT22;41716;51.910;4.430;2023-02-22T08:25:56;5.90;99.90
55795;DHT22;41716;51.910;4.430;2023-02-22T08:30:57;6.70;99.90
55795;DHT22;41716;51.910;4.430;2023-02-22T08:35:59;7.20;99.90
55795;DHT22;41716;51.910;4.430;2023-02-22T08:41:02;6.00;99.90
55795;DHT22;41716;51.910;4.430;2023-02-22T08:46:03;7.50;99.90
55795;DHT22;41716;51.910;4.430;2023-02-22T08:51:05;7.00;99.90
55795;DHT22;41716;51.910;4.430;2023-02-22T08:56:08;7.60;99.90
55795;DHT22;41716;51.910;4.430;2023-02-22T09:01:09;6.80;99.90
55795;DHT22;41716;51.910;4.430;2023-02-22T09:06:11;7.30;99.90
55795;DHT22;41716;51.910;4.430;2023-02-22T09:11:14;7.00;99.90
55795;DHT22;41716;51.910;4.430;2023-02-22T09:16:15;7.00;99.90
55795;DHT22;41716;51.910;4.430;2023-02-22T09:21:17;7.10;99.90
55795;DHT22;41716;51.910;4.430;2023-02-22T09:26:20;7.60;99.90
55795;DHT22;41716;51.910;4.430;2023-02-22T09:31:22;7.50;99.90
55795;DHT22;41716;51.910;4.430;2023-02-22T09:36:24;7.10;99.90
55795;DHT22;41716;51.910;4.430;2023-02-22T09:41:29;7.60;99.90
55795;DHT22;41716;51.910;4.430;2023-02-22T09:46:34;7.50;99.90
55795;DHT22;41716;51.910;4.430;2023-02-22T09:51:38;7.50;99.90
55795;DHT22;41716;51.910;4.430;2023-02-22T09:56:42;7.50;99.90
55795;DHT22;41716;51.910;4.430;2023-02-22T10:01:46;7.70;99.90
55795;DHT22;41716;51.910;4.430;2023-02-22T10:06:55;7.70;99.90
55795;DHT22;41716;51.910;4.430;2023-02-22T10:12:04;7.60;99.90
55795;DHT22;41716;51.910;4.430;2023-02-22T10:17:10;7.30;99.90
55795;DHT22;41716;51.910;4.430;2023-02-22T10:22:17;7.30;99.90
55795;DHT22;41716;51.910;4.430;2023-02-22T10:27:24;7.90;99.90
55795;DHT22;41716;51.910;4.430;2023-02-22T10:32:28;7.50;99.90
55795;DHT22;41716;51.910;4.430;2023-02-22T10:37:32;8.00;99.90
55795;DHT22;41716;51.910;4.430;2023-02-22T10:42:36;7.50;99.90
55795;DHT22;41716;51.910;4.430;2023-02-22T10:47:37;8.30;99.90
55795;DHT22;41716;51.910;4.430;2023-02-22T10:52:40;8.70;99.90
55795;DHT22;41716;51.910;4.430;2023-02-22T10:57:45;8.20;99.90
55795;DHT22;41716;51.910;4.430;2023-02-22T11:02:48;8.40;99.90
55795;DHT22;41716;51.910;4.430;2023-02-22T11:07:51;8.10;99.90
55795;DHT22;41716;51.910;4.430;2023-02-22T11:13:22;8.40;99.90
55795;DHT22;41716;51.910;4.430;2023-02-22T11:18:25;8.30;99.90
55795;DHT22;41716;51.910;4.430;2023-02-22T11:23:28;8.50;99.90
55795;DHT22;41716;51.910;4.430;2023-02-22T11:28:31;8.90;99.90
55795;DHT22;41716;51.910;4.430;2023-02-22T11:33:33;8.70;99.90
55795;DHT22;41716;51.910;4.430;2023-02-22T11:38:35;8.60;99.90
55795;DHT22;41716;51.910;4.430;2023-02-22T11:43:38;9.00;99.90
55795;DHT22;41716;51.910;4.430;2023-02-22T11:48:41;9.20;99.90
55795;DHT22;41716;51.910;4.430;2023-02-22T11:53:57;9.10;99.90
55795;DHT22;41716;51.910;4.430;2023-02-22T11:59:09;9.00;99.90
55795;DHT22;41716;51.910;4.430;2023-02-22T12:04:31;9.30;99.90
55795;DHT22;41716;51.910;4.430;2023-02-22T12:09:37;9.40;99.90
55795;DHT22;41716;51.910;4.430;2023-02-22T12:14:42;9.20;99.90
55795;DHT22;41716;51.910;4.430;2023-02-22T12:19:46;9.10;99.90
55795;DHT22;41716;51.910;4.430;2023-02-22T12:24:51;9.60;99.90
55795;DHT22;41716;51.910;4.430;2023-02-22T12:29:56;9.20;99.90
55795;DHT22;41716;51.910;4.430;2023-02-22T12:35:00;9.60;99.90
55795;DHT22;41716;51.910;4.430;2023-02-22T12:40:06;9.50;99.90
55795;DHT22;41716;51.910;4.430;2023-02-22T12:45:11;9.60;99.90
55795;DHT22;41716;51.910;4.430;2023-02-22T12:55:20;9.60;99.90
55795;DHT22;41716;51.910;4.430;2023-02-22T13:00:25;9.90;99.90
55795;DHT22;41716;51.910;4.430;2023-02-22T13:05:28;9.60;99.90
55795;DHT22;41716;51.910;4.430;2023-02-22T13:10:33;9.70;99.90
55795;DHT22;41716;51.910;4.430;2023-02-22T13:15:41;9.70;99.90
55795;DHT22;41716;51.910;4.430;2023-02-22T13:20:46;9.90;99.90
55795;DHT22;41716;51.910;4.430;2023-02-22T13:25:50;10.20;99.90
55795;DHT22;41716;51.910;4.430;2023-02-22T13:31:01;9.80;99.90
55795;DHT22;41716;51.910;4.430;2023-02-22T13:36:12;10.30;99.90
55795;DHT22;41716;51.910;4.430;2023-02-22T13:41:21;10.30;99.90
55795;DHT22;41716;51.910;4.430;2023-02-22T13:46:42;10.10;99.90
55795;DHT22;41716;51.910;4.430;2023-02-22T13:51:49;9.80;99.90
55795;DHT22;41716;51.910;4.430;2023-02-22T13:56:52;10.30;99.90
55795;DHT22;41716;51.910;4.430;2023-02-22T14:01:56;10.30;99.90
55795;DHT22;41716;51.910;4.430;2023-02-22T14:06:58;10.30;99.90
55795;DHT22;41716;51.910;4.430;2023-02-22T14:12:01;10.20;99.90
55795;DHT22;41716;51.910;4.430;2023-02-22T14:17:15;10.20;99.90
55795;DHT22;41716;51.910;4.430;2023-02-22T14:22:23;10.00;99.90
55795;DHT22;41716;51.910;4.430;2023-02-22T14:27:30;10.30;99.90
55795;DHT22;41716;51.910;4.430;2023-02-22T14:32:40;10.30;99.90
55795;DHT22;41716;51.910;4.430;2023-02-22T14:37:47;10.00;99.90
55795;DHT22;41716;51.910;4.430;2023-02-22T14:42:50;10.40;99.90
55795;DHT22;41716;51.910;4.430;2023-02-22T14:47:55;9.90;99.90
55795;DHT22;41716;51.910;4.430;2023-02-22T14:53:03;10.10;99.90
55795;DHT22;41716;51.910;4.430;2023-02-22T14:58:07;10.10;99.90
55795;DHT22;41716;51.910;4.430;2023-02-22T15:03:16;10.10;99.90
55795;DHT22;41716;51.910;4.430;2023-02-22T15:08:19;10.40;99.90
55795;DHT22;41716;51.910;4.430;2023-02-22T15:13:28;10.30;99.90
55795;DHT22;41716;51.910;4.430;2023-02-22T15:18:34;10.20;99.90
55795;DHT22;41716;51.910;4.430;2023-02-22T15:23:40;10.30;99.90
55795;DHT22;41716;51.910;4.430;2023-02-22T15:28:42;9.80;99.90
55795;DHT22;41716;51.910;4.430;2023-02-22T15:33:46;10.20;99.90
55795;DHT22;41716;51.910;4.430;2023-02-22T15:38:47;10.00;99.90
55795;DHT22;41716;51.910;4.430;2023-02-22T15:43:59;10.00;99.90
55795;DHT22;41716;51.910;4.430;2023-02-22T15:49:06;9.30;99.90
55795;DHT22;41716;51.910;4.430;2023-02-22T15:54:07;10.00;99.90
55795;DHT22;41716;51.910;4.430;2023-02-22T15:59:18;9.60;99.90
55795;DHT22;41716;51.910;4.430;2023-02-22T16:04:23;10.00;99.90
55795;DHT22;41716;51.910;4.430;2023-02-22T16:09:27;9.50;99.90
55795;DHT22;41716;51.910;4.430;2023-02-22T16:14:30;9.50;99.90
55795;DHT22;41716;51.910;4.430;2023-02-22T16:19:41;10.00;99.90
55795;DHT22;41716;51.910;4.430;2023-02-22T16:24:44;10.00;99.90
55795;DHT22;41716;51.910;4.430;2023-02-22T16:30:02;9.90;99.90
55795;DHT22;41716;51.910;4.430;2023-02-22T16:35:05;10.00;99.90
55795;DHT22;41716;51.910;4.430;2023-02-22T16:40:18;9.60;99.90
55795;DHT22;41716;51.910;4.430;2023-02-22T16:45:23;8.90;99.90
55795;DHT22;41716;51.910;4.430;2023-02-22T16:50:26;9.90;99.90
55795;DHT22;41716;51.910;4.430;2023-02-22T16:55:28;10.00;99.90
55795;DHT22;41716;51.910;4.430;2023-02-22T17:00:29;9.90;99.90
55795;DHT22;41716;51.910;4.430;2023-02-22T17:05:32;9.70;99.90
55795;DHT22;41716;51.910;4.430;2023-02-22T17:10:35;9.30;99.90
55795;DHT22;41716;51.910;4.430;2023-02-22T17:15:37;9.40;99.90
55795;DHT22;41716;51.910;4.430;2023-02-22T17:20:40;8.80;99.90
55795;DHT22;41716;51.910;4.430;2023-02-22T17:25:43;9.40;99.90
55795;DHT22;41716;51.910;4.430;2023-02-22T17:30:45;8.80;99.90
55795;DHT22;41716;51.910;4.430;2023-02-22T17:35:49;8.80;99.90
55795;DHT22;41716;51.910;4.430;2023-02-22T17:40:51;9.00;99.90
55795;DHT22;41716;51.910;4.430;2023-02-22T17:45:53;8.90;99.90
55795;DHT22;41716;51.910;4.430;2023-02-22T17:50:56;9.70;99.90
55795;DHT22;41716;51.910;4.430;2023-02-22T17:55:58;9.70;99.90
55795;DHT22;41716;51.910;4.430;2023-02-22T18:01:04;9.50;99.90
55795;DHT22;41716;51.910;4.430;2023-02-22T18:06:07;9.00;99.90
55795;DHT22;41716;51.910;4.430;2023-02-22T18:11:09;8.50;99.90
55795;DHT22;41716;51.910;4.430;2023-02-22T18:16:10;8.90;99.90
55795;DHT22;41716;51.910;4.430;2023-02-22T18:21:13;9.10;99.90
55795;DHT22;41716;51.910;4.430;2023-02-22T18:26:16;9.20;99.90
55795;DHT22;41716;51.910;4.430;2023-02-22T18:31:18;8.40;99.90
55795;DHT22;41716;51.910;4.430;2023-02-22T18:36:21;9.40;99.90
55795;DHT22;41716;51.910;4.430;2023-02-22T18:41:23;8.40;99.90
55795;DHT22;41716;51.910;4.430;2023-02-22T18:46:25;8.40;99.90
55795;DHT22;41716;51.910;4.430;2023-02-22T18:51:30;9.40;99.90
55795;DHT22;41716;51.910;4.430;2023-02-22T18:56:31;8.90;99.90
55795;DHT22;41716;51.910;4.430;2023-02-22T19:01:33;8.40;99.90
55795;DHT22;41716;51.910;4.430;2023-02-22T19:06:39;8.70;99.90
55795;DHT22;41716;51.910;4.430;2023-02-22T19:11:42;9.00;99.90
55795;DHT22;41716;51.910;4.430;2023-02-22T19:16:47;9.00;99.90
55795;DHT22;41716;51.910;4.430;2023-02-22T19:21:50;9.10;99.90
55795;DHT22;41716;51.910;4.430;2023-02-22T19:26:52;9.10;99.90
55795;DHT22;41716;51.910;4.430;2023-02-22T19:31:56;8.70;99.90
55795;DHT22;41716;51.910;4.430;2023-02-22T19:36:59;9.50;99.90
55795;DHT22;41716;51.910;4.430;2023-02-22T19:42:01;9.50;99.90
55795;DHT22;41716;51.910;4.430;2023-02-22T19:47:04;9.30;99.90
55795;DHT22;41716;51.910;4.430;2023-02-22T19:52:09;9.60;99.90
55795;DHT22;41716;51.910;4.430;2023-02-22T19:57:11;9.20;99.90
55795;DHT22;41716;51.910;4.430;2023-02-22T20:02:12;8.80;99.90
55795;DHT22;41716;51.910;4.430;2023-02-22T20:07:15;8.60;99.90
55795;DHT22;41716;51.910;4.430;2023-02-22T20:12:17;9.20;99.90
55795;DHT22;41716;51.910;4.430;2023-02-22T20:17:21;9.10;99.90
55795;DHT22;41716;51.910;4.430;2023-02-22T20:22:24;8.30;99.90
55795;DHT22;41716;51.910;4.430;2023-02-22T20:27:26;8.70;99.90
55795;DHT22;41716;51.910;4.430;2023-02-22T20:32:28;9.50;99.90
55795;DHT22;41716;51.910;4.430;2023-02-22T20:37:32;8.70;99.90
55795;DHT22;41716;51.910;4.430;2023-02-22T20:42:34;9.20;99.90
55795;DHT22;41716;51.910;4.430;2023-02-22T20:47:36;9.50;99.90
55795;DHT22;41716;51.910;4.430;2023-02-22T20:52:40;8.90;99.90
55795;DHT22;41716;51.910;4.430;2023-02-22T20:57:41;8.80;99.90
55795;DHT22;41716;51.910;4.430;2023-02-22T21:02:43;8.50;99.90
55795;DHT22;41716;51.910;4.430;2023-02-22T21:07:47;9.40;99.90
55795;DHT22;41716;51.910;4.430;2023-02-22T21:12:48;8.40;99.90
55795;DHT22;41716;51.910;4.430;2023-02-22T21:17:50;9.50;99.90
55795;DHT22;41716;51.910;4.430;2023-02-22T21:22:54;8.40;99.90
55795;DHT22;41716;51.910;4.430;2023-02-22T21:27:56;8.70;99.90
55795;DHT22;41716;51.910;4.430;2023-02-22T21:32:58;9.40;99.90
55795;DHT22;41716;51.910;4.430;2023-02-22T21:38:01;9.50;99.90
55795;DHT22;41716;51.910;4.430;2023-02-22T21:43:03;8.40;99.90
55795;DHT22;41716;51.910;4.430;2023-02-22T21:48:05;8.20;99.90
55795;DHT22;41716;51.910;4.430;2023-02-22T21:53:08;8.50;99.90
55795;DHT22;41716;51.910;4.430;2023-02-22T21:58:09;9.20;99.90
55795;DHT22;41716;51.910;4.430;2023-02-22T22:03:11;9.10;99.90
55795;DHT22;41716;51.910;4.430;2023-02-22T22:08:20;8.20;99.90
55795;DHT22;41716;51.910;4.430;2023-02-22T22:13:25;8.70;99.90
55795;DHT22;41716;51.910;4.430;2023-02-22T22:18:27;8.20;99.90
55795;DHT22;41716;51.910;4.430;2023-02-22T22:23:30;9.10;99.90
55795;DHT22;41716;51.910;4.430;2023-02-22T22:28:32;8.90;99.90
55795;DHT22;41716;51.910;4.430;2023-02-22T22:33:34;8.70;99.90
55795;DHT22;41716;51.910;4.430;2023-02-22T22:38:37;9.40;99.90
55795;DHT22;41716;51.910;4.430;2023-02-22T22:43:39;8.20;99.90
55795;DHT22;41716;51.910;4.430;2023-02-22T22:48:41;8.10;99.90
55795;DHT22;41716;51.910;4.430;2023-02-22T22:53:44;8.20;99.90
55795;DHT22;41716;51.910;4.430;2023-02-22T22:58:47;8.10;99.90
55795;DHT22;41716;51.910;4.430;2023-02-22T23:03:51;9.40;99.90
55795;DHT22;41716;51.910;4.430;2023-02-22T23:08:57;8.20;99.90
55795;DHT22;41716;51.910;4.430;2023-02-22T23:14:00;8.10;99.90
55795;DHT22;41716;51.910;4.430;2023-02-22T23:19:02;8.30;99.90
55795;DHT22;41716;51.910;4.430;2023-02-22T23:24:08;9.20;99.90
55795;DHT22;41716;51.910;4.430;2023-02-22T23:29:11;9.30;99.90
55795;DHT22;41716;51.910;4.430;2023-02-22T23:34:13;9.30;99.90
55795;DHT22;41716;51.910;4.430;2023-02-22T23:39:16;8.30;99.90
55795;DHT22;41716;51.910;4.430;2023-02-22T23:44:19;9.10;99.90
55795;DHT22;41716;51.910;4.430;2023-02-22T23:49:21;8.30;99.90
55795;DHT22;41716;51.910;4.430;2023-02-22T23:54:24;9.30;99.90
55795;DHT22;41716;51.910;4.430;2023-02-22T23:59:35;9.30;99.90
